PROFILE

 METAR AND TAF INFORMATION
METAR FOR DAAG
ADDS - METARS form results

(2258 UTC 23 April 2018)
Data provider http://aviationweather.gov/adds/metars/
 
METAR text: DAAG 232230Z 06003KT CAVOK 16/14 Q1014
Conditions at: DAAG (DAR-EL-BEIDA/HOU, DZ) observed 2230 UTC 23 April 2018
Temperature: 16.0°C (61°F)
Dewpoint: 14.0°C (57°F) [RH = 88%]
Pressure (altimeter): 29.94 inches Hg (1014.0 mb)
Winds: from the ENE (60 degrees) at 3 MPH (3 knots; 1.6 m/s)
Visibility: 6 or more miles (10+ km)
Ceiling: ceiling and visibility are OK
Clouds: unknown
Weather: no significant weather observed at this time

METAR text: DAAG 232200Z 05004KT CAVOK 17/15 Q1014
Conditions at: DAAG (DAR-EL-BEIDA/HOU, DZ) observed 2200 UTC 23 April 2018
Temperature: 17.0°C (63°F)
Dewpoint: 15.0°C (59°F) [RH = 88%]
Pressure (altimeter): 29.94 inches Hg (1014.0 mb)
Winds: from the NE (50 degrees) at 5 MPH (4 knots; 2.1 m/s)
Visibility: 6 or more miles (10+ km)
Ceiling: ceiling and visibility are OK
Clouds: unknown
Weather: no significant weather observed at this time

Forecast for: DAAG (DAR-EL-BEIDA/HOU, DZ)
Text: TAF DAAG 231700Z 2318/2418 VRB02KT 9999 FEW026 SCT100
Forecast period: 1800 UTC 23 April 2018 to 1100 UTC 24 April 2018
Forecast type: FROM: standard forecast or significant change
Winds: variable direction winds at 2 MPH (2 knots; 1.0 m/s)
Visibility: 6 or more miles (10+ km)
Clouds: few clouds at 2600 feet AGL
scattered clouds at 10000 feet AGL
Weather: no significant weather forecast for this period
Forecast for: DAAG (DAR-EL-BEIDA/HOU, DZ)
Text: TAF DAAG 231700Z 2318/2418 VRB02KT 9999 FEW026 SCT100
Forecast period: 1800 UTC 23 April 2018 to 1100 UTC 24 April 2018
Forecast type: FROM: standard forecast or significant change
Winds: variable direction winds at 2 MPH (2 knots; 1.0 m/s)
Visibility: 6 or more miles (10+ km)
Clouds: few clouds at 2600 feet AGL
scattered clouds at 10000 feet AGL
Weather: no significant weather forecast for this period
Forecast for: DAAG (DAR-EL-BEIDA/HOU, DZ)
Text: TAF DAAG 231700Z 2318/2418 VRB02KT 9999 FEW026 SCT100
Forecast period: 0500 to 1100 UTC 24 April 2018
Forecast type: TEMPORARY: The following changes expected for less than half the time period
Winds: variable direction winds at 17 MPH (15 knots; 7.8 m/s)
gusting to 29 MPH (25 knots; 13.0 m/s)
Visibility: 3 miles (5 km)
Clouds: few clouds at 2300 feet AGL
Weather: -RA  (light rain)
Forecast for: DAAG (DAR-EL-BEIDA/HOU, DZ)
Text: TAF DAAG 231700Z 2318/2418 VRB02KT 9999 FEW026 SCT100
Forecast period: 0500 to 1100 UTC 24 April 2018
Forecast type: TEMPORARY: The following changes expected for less than half the time period
Winds: variable direction winds at 17 MPH (15 knots; 7.8 m/s)
gusting to 29 MPH (25 knots; 13.0 m/s)
Visibility: 3 miles (5 km)
Clouds: few clouds at 2300 feet AGL
Weather: -RA  (light rain)
Forecast for: DAAG (DAR-EL-BEIDA/HOU, DZ)
Text: TAF DAAG 231700Z 2318/2418 VRB02KT 9999 FEW026 SCT100
Forecast period: 1100 to 1800 UTC 24 April 2018
Forecast type: BECOMING: Conditions expected to become as follows by 1400 UTC 24 April 2018
Winds: from the E (80 degrees) at 12 MPH (10 knots; 5.2 m/s)
Visibility: 6 or more miles (10+ km)
Clouds: few clouds at 2600 feet AGL
scattered clouds at 10000 feet AGL
Weather: no significant weather forecast for this period
Forecast for: DAAG (DAR-EL-BEIDA/HOU, DZ)
Text: TAF DAAG 231700Z 2318/2418 VRB02KT 9999 FEW026 SCT100
Forecast period: 1100 to 1800 UTC 24 April 2018
Forecast type: BECOMING: Conditions expected to become as follows by 1400 UTC 24 April 2018
Winds: from the E (80 degrees) at 12 MPH (10 knots; 5.2 m/s)
Visibility: 6 or more miles (10+ km)
Clouds: few clouds at 2600 feet AGL
scattered clouds at 10000 feet AGL
Weather: no significant weather forecast for this period

 AIRPORT MAP

 RUNWAY INFORMATION
Runway 05 Runway length 11483 ft Runway width 197 ft
Runway elevation 72 ft Runway displaced threshold 0 ft Runway heading 53
Runway 23 Runway length 11483 ft Runway width 197 ft
Runway elevation 82 ft Runway displaced threshold 0 ft Runway heading 233
Runway 09 Runway length 11483 ft Runway width 148 ft
Runway elevation 56 ft Runway displaced threshold 0 ft Runway heading 92
Runway 27 Runway length 11483 ft Runway width 148 ft
Runway elevation 82 ft Runway displaced threshold 0 ft Runway heading 272

 AIRPORT FREQUENCIES
Type APP Name ALGER APP Frequency 121.4 MHZ
Type GND Name ALGER GND Frequency 121.8 MHZ
Type TWR Name ALGER TWR Frequency 118.7 MHZ

 AIRPORT NEAR NAVIGATION AIDS
Type VOR-DME Name Alger Frequency 112500 KHZ
Type NDB Name Houari Boumediene Frequency 416 KHZ
Type VOR Name Alger Frequency 113900 KHZ
Type NDB Name Houari Boumediene Frequency 370 KHZ